aviador You're here:

LQBK Decoded Metar

BANJA LUKA in BOSNIA-HERCEGOVINA
Report Time2018-01-17 09:00:00
UTC Time2018-01-17 09:11:37
Flight Rules ifr IFR
Wind320° at 08 kt
W.Decomp.*RWY 35: 6.9 kt HW 4.1 kt LCW
W.Rank320° ranks 3
Current wind is above 320° avg. (5.1)
Visibility3000 m
Phenomena:Shower Rain
Clouds:Few 020 Hf
Few TCU 025 Hf
Broken 033 Hf
Expected CloudBase > 400 ft AGL from Temp-Dew spread
Ceiling3,300 ft
Temp07°C (ISA -7)
Dew Point06°C (93% RH)
AAT3.2°C
QNH0996 hPa
Density Alt243 ft
Elevation400 ft
Report Wrong Elevation
Raw Report
LQBK 170900Z 32008KT 3000 SHRA FEW020 FEW025TCU BKN033 07/06 Q0996
NOSIG=

Extra information for LQBK:More info

Metar Taf Metar & Taf Last 4 Metars F.Rules Stats Wind Profile Meteogram Temp Stats Airport Information Weather charts Add Link Nearby VenuesMetar ALERT Operation Metar Decoded Social comments